Terminal Aerodrome Forecast
Issued by NWS Tampa Bay Area, FL

Home | Current Version | Previous Version | Text Only | Print | Product List | Glossary On
Versions: 1 2 3 4 5 6 7 8 9 10 11 12 13 14 15 16 17 18 19 20 21 22 23 24 25 26 27 28 29
000
FTUS42 KTBW 222053 CCA
TAFTPA
TAF COR
KTPA 222053Z 2221/2324 15008KT 2SM +TSRA BR BKN020CB OVC040
     FM222130 VRB08G18KT 3SM -TSRA FEW020CB BKN030
     FM222200 13006KT P6SM VCSH SCT025 BKN070
     FM230300 10004KT P6SM SCT070 SCT250
     FM231400 14006KT P6SM SCT015 BKN250
     FM231700 21007KT P6SM VCTS SCT025CB BKN040=

USA.gov is the U.S. government's official web portal to all federal, state and local government web resources and services.